Погода METAR - Абакан

Кемерово, Абакан, Красноярск, Новосибирск
Код METAR: UNAA 270800Z 19005MPS 5000 -SN BKN048 M21/M25 Q1051 R20/490142 NOSIG RMK QFE765

Погода - Сейчас

Время: 2022-11-27 15:00, местное
Направление ветра: Юг (190°)
Скорость ветра: 5 м/с
Видимость:
Температура: -21°C
Точка росы: -25°C
Атмосферное давление: 1051 гПа

Архив погоды

Время, местное Направление Скорость, м/с Температура, °C Точка росы, °C Давление, гПа
2022-11-27 15:00 Ю (190°) 5 -21 -25 1051
2022-11-27 12:30 ЮЮЗ (200°) 5 -21 -25 1050
2022-11-27 10:30 Ю (190°) 5 -23 -27 1049
2022-11-25 12:30 Переменный 1 -10 -18 1015
2022-11-24 19:00 Ю (180°) 2 -13 -20 1030
2022-11-22 23:30 Ю (170°) 6 -3 -9 1006
2022-11-21 13:00 ЮЗ (220°) 6 -8 -19 1022
2022-11-21 04:30 ЗЮЗ (260°) 6 -10 -18 1019
2022-11-16 14:00 ЮЗ (230°) 8 8 -4 1008
2022-11-16 03:00 Ю (190°) 6 3 0 1003
2022-11-15 08:00 С (360°) 1 -5 -5 1005
2022-11-14 00:00 Ю (190°) 6 3 0 1010
2022-11-13 10:00 Ю (180°) 6 3 -2 1011
2022-11-11 00:30 ЮЮВ (160°) 2 -3 -7 1030
2022-11-10 02:30 ЮЗ (210°) 3 -3 -6 1030
2022-11-09 19:30 ЗЮЗ (260°) 1 -1 -3 1027
2022-11-09 08:30 ЮЗ (230°) 1 -3 -4 1022
2022-11-05 16:00 ЮВ (120°) 3 0 -1 1021
2022-11-04 17:30 Штиль 0 0 -3 1023
2022-11-04 10:30 Ю (190°) 1 -1 -2 1025
2022-11-01 22:30 Штиль 0 -4 -4 1030
2022-10-30 11:30 В (100°) 2 0 -6 1032
2022-10-25 08:30 ЮЮВ (160°) 1 -5 -8 1030
2022-10-29 02:00 ЮЮЗ (200°) 3 -1 -5 1030
2022-10-27 23:30 ЮЗ (230°) 1 -2 -6 1015
2022-10-27 11:30 Переменный 1 1 -5 1021
2022-10-26 14:30 Переменный 1 5 -7 1021
2022-10-25 19:00 ССВ (20°) 2 -2 -9 1025
2022-10-23 15:30 Переменный 1 14 4 1002
2022-10-22 05:00 Ю (180°) 4 8 3 1021
2022-10-21 22:30 Ю (180°) 4 6 3 1022
2022-10-21 03:30 ЮЮВ (150°) 4 6 -1 1017
2022-10-18 02:00 ЮЗ (220°) 5 7 3 1017
2022-10-17 17:00 Штиль 0 5 1 1016
2022-10-15 09:00 Штиль 0 -2 -3 1033
2022-10-14 03:00 Штиль 0 1 0 1030
2022-10-13 10:00 Ю (170°) 1 4 1 1027
2022-10-13 04:00 ССЗ (340°) 6 3 1 1022
2022-10-12 23:30 ЮЗ (210°) 4 8 1 1018
2022-10-12 07:00 ЮЗ (210°) 7 9 1 1020
2022-10-11 20:30 ЮЗ (210°) 6 9 0 1022
2022-10-11 19:30 ЮЮЗ (200°) 5 9 -1 1023
2022-10-11 02:00 ЮЗ (210°) 7 7 2 1026
2022-10-09 08:30 ЮВ (130°) 1 -1 -2 1022
2022-10-08 23:00 Ю (180°) 2 1 -2 1023
2022-10-08 08:30 З (270°) 1 -2 -3 1030
2022-10-08 03:30 ЗЮЗ (250°) 1 -3 -4 1030
2022-10-07 22:30 ЮВ (120°) 3 3 -2 1031